createdAt,value
2023-01-29T00:08:40.435Z,1028.1
2023-01-29T00:37:02.900Z,1027.94
2023-01-29T01:05:37.952Z,1027.87
2023-01-29T01:34:04.578Z,1028.06
2023-01-29T02:02:27.922Z,1028.07
2023-01-29T02:30:52.961Z,1028.09
2023-01-29T02:59:26.119Z,1028.02
2023-01-29T03:28:07.983Z,1028.09
2023-01-29T03:56:50.274Z,1028.11
2023-01-29T04:25:27.680Z,1028.11
2023-01-29T04:54:06.914Z,1028.08
2023-01-29T05:22:41.171Z,1027.93
2023-01-29T05:51:17.303Z,1027.93
2023-01-29T06:19:51.100Z,1028.11
2023-01-29T06:48:37.860Z,1028.41
2023-01-29T07:17:07.387Z,1028.47
2023-01-29T07:45:44.628Z,1028.54
2023-01-29T08:14:08.576Z,1028.78
2023-01-29T08:42:27.840Z,1029.19
2023-01-29T09:10:45.678Z,1029.21
2023-01-29T09:39:20.026Z,1029.13
2023-01-29T10:07:53.770Z,1029.03
2023-01-29T10:36:18.373Z,1028.57
2023-01-29T11:04:56.524Z,1028.42
2023-01-29T11:33:28.289Z,1028.43
2023-01-29T12:02:03.102Z,1028.13
2023-01-29T12:30:29.053Z,1027.62
2023-01-29T12:59:00.519Z,1027.03
2023-01-29T13:27:23.575Z,1026.74
2023-01-29T13:55:52.743Z,1026.64
2023-01-29T14:24:22.042Z,1026.8
2023-01-29T14:52:39.456Z,1026.93
2023-01-29T15:21:11.734Z,1026.89
2023-01-29T15:49:42.601Z,1026.84
2023-01-29T16:17:55.813Z,1026.88
2023-01-29T16:46:21.439Z,1027.06
2023-01-29T17:14:34.418Z,1027.17
2023-01-29T17:43:04.662Z,1026.92
2023-01-29T18:11:19.832Z,1026.98
2023-01-29T18:39:49.333Z,1027.11
2023-01-29T19:08:14.656Z,1027.11
2023-01-29T19:36:56.226Z,1027.13
2023-01-29T20:05:10.377Z,1027.21
2023-01-29T20:33:53.865Z,1027.38
2023-01-29T21:02:33.272Z,1027.02
2023-01-29T21:30:59.790Z,1027.05
2023-01-29T21:59:29.445Z,1026.77
2023-01-29T22:28:13.580Z,1026.96
2023-01-29T22:56:44.604Z,1026.69
2023-01-29T23:25:20.902Z,1026.03
2023-01-29T23:53:52.025Z,1025.46
